Pagrindinis puslapis
METAR-TAF:

METAR-TAF

Oro uostai :

Esmeraldasas, Ekvadoras

platuma: 00-58-43N, ilguma: 079-37-36W, Aukštis: 10 m

Dabartinis oras

Ataskaita buvo paskelbta 37 minutes, ne 22:00 UTC
Vėjas 5 kt iš Vakarų/Šiaurės Vakarų, svyruoja nuo Pietų/Pietvakarių ir Šiaurės/Šiaurės Vakarų
Temperatūra 29°C
Drėgmė 79%
Slėgis 1009 hPa
Matomumas 10 km arba daugiau
Mažai debesys ne aukštis 2600 ft

METAR: SETN 212200Z 29005KT 200V340 9999 FEW026 29/25 Q1009 RMK A2980

Laikas: 17:37 (22:37 UTC)


TAF: trūkstamas

Orai ataskaitas ir orų prognozės (METAR, TAF).

turimą stotys yra geltonos ir raudonos taškus žemėlapyje.

Perkelti pele per norėdami pamatyti stoties vardą.

Tada spustelėkite, norėdami matyti oro stebėjimo ir prognozės.

Norėdami pakeisti žemėlapį: spustelėkite ant žalios mygtukų su juodo kryžiaus žemyn,; žalią mygtuką su brūkšneliu, jei norite nutolinti; arba žalių rodyklių gretimoms žemėlapius.


METAR-TAF: